Los Alamos, New Mexico
Current Conditions -  °F | °C
As of 10:15 AM on Friday 19 Dec 2014 (Local Time) from KLAM Reporting Station
Clear Clear  
Wind Chill: 21°   Ceiling: Unl
Heat Index: 28°   Visibility: 10mi
Dew Point: 24°   Wind: 7mph
Humidity: 84%   Direction: 80°E
Pressure: 30.21"   Gusts: NA
Location:  35.88°N, 106.3°W
Report Text: KLAM 191715Z AUTO 08006KT 10SM CLR M02/M04 A3021 RMK AO2 T10221045
Loading
Personal Weather Stations






























Interactive Weather Map New forecast layout! Learn more

10-Day Weather Forecast

Advertisements
Track Severe Weather on mobile